sensor_id;sensor_type;location;lat;lon;timestamp;temperature;humidity
48994;DHT22;34804;49.214;12.276;2023-04-06T00:00:59;-3274.80;83.00
48994;DHT22;34804;49.214;12.276;2023-04-06T00:03:25;-3274.80;82.40
48994;DHT22;34804;49.214;12.276;2023-04-06T00:05:52;-3274.70;82.60
48994;DHT22;34804;49.214;12.276;2023-04-06T00:08:19;-3274.70;82.90
48994;DHT22;34804;49.214;12.276;2023-04-06T00:10:48;-3274.70;82.90
48994;DHT22;34804;49.214;12.276;2023-04-06T00:13:14;-3274.70;82.70
48994;DHT22;34804;49.214;12.276;2023-04-06T00:15:41;-3274.70;82.40
48994;DHT22;34804;49.214;12.276;2023-04-06T00:18:08;-3274.70;82.60
48994;DHT22;34804;49.214;12.276;2023-04-06T00:20:35;-3274.60;83.00
48994;DHT22;34804;49.214;12.276;2023-04-06T00:23:02;-3274.60;83.30
48994;DHT22;34804;49.214;12.276;2023-04-06T00:25:29;-3274.70;83.50
48994;DHT22;34804;49.214;12.276;2023-04-06T00:27:55;-3274.60;83.20
48994;DHT22;34804;49.214;12.276;2023-04-06T00:30:22;-3274.60;83.00
48994;DHT22;34804;49.214;12.276;2023-04-06T00:32:49;-3274.60;83.10
48994;DHT22;34804;49.214;12.276;2023-04-06T00:35:16;-3274.60;82.70
48994;DHT22;34804;49.214;12.276;2023-04-06T00:37:46;-3274.60;82.70
48994;DHT22;34804;49.214;12.276;2023-04-06T00:40:13;-3274.50;83.30
48994;DHT22;34804;49.214;12.276;2023-04-06T00:42:41;-3274.40;83.50
48994;DHT22;34804;49.214;12.276;2023-04-06T00:45:08;-3274.20;84.20
48994;DHT22;34804;49.214;12.276;2023-04-06T00:47:35;-3274.10;84.50
48994;DHT22;34804;49.214;12.276;2023-04-06T00:50:02;-3274.00;84.70
48994;DHT22;34804;49.214;12.276;2023-04-06T00:52:30;-3274.00;84.90
48994;DHT22;34804;49.214;12.276;2023-04-06T00:54:57;-3274.00;85.30
48994;DHT22;34804;49.214;12.276;2023-04-06T00:57:23;-3274.10;84.90
48994;DHT22;34804;49.214;12.276;2023-04-06T00:59:51;-3274.10;84.70
48994;DHT22;34804;49.214;12.276;2023-04-06T01:02:19;-3274.00;84.80
48994;DHT22;34804;49.214;12.276;2023-04-06T01:04:46;-3274.00;85.00
48994;DHT22;34804;49.214;12.276;2023-04-06T01:07:13;-3274.00;85.40
48994;DHT22;34804;49.214;12.276;2023-04-06T01:09:40;-3274.00;84.30
48994;DHT22;34804;49.214;12.276;2023-04-06T01:12:08;-3273.90;84.80
48994;DHT22;34804;49.214;12.276;2023-04-06T01:14:35;-3273.90;84.90
48994;DHT22;34804;49.214;12.276;2023-04-06T01:17:02;-3273.80;85.30
48994;DHT22;34804;49.214;12.276;2023-04-06T01:19:29;-3273.80;85.30
48994;DHT22;34804;49.214;12.276;2023-04-06T01:21:56;-3273.70;85.60
48994;DHT22;34804;49.214;12.276;2023-04-06T01:24:23;-3273.60;86.00
48994;DHT22;34804;49.214;12.276;2023-04-06T01:26:50;-3273.60;86.40
48994;DHT22;34804;49.214;12.276;2023-04-06T01:29:17;-3273.60;86.30
48994;DHT22;34804;49.214;12.276;2023-04-06T01:31:43;-3273.70;86.20
48994;DHT22;34804;49.214;12.276;2023-04-06T01:34:10;-3273.70;86.00
48994;DHT22;34804;49.214;12.276;2023-04-06T01:36:37;-3273.70;85.80
48994;DHT22;34804;49.214;12.276;2023-04-06T01:39:04;-3273.80;85.70
48994;DHT22;34804;49.214;12.276;2023-04-06T01:41:32;-3273.80;85.20
48994;DHT22;34804;49.214;12.276;2023-04-06T01:44:00;-3273.90;85.20
48994;DHT22;34804;49.214;12.276;2023-04-06T01:46:28;-3273.90;85.10
48994;DHT22;34804;49.214;12.276;2023-04-06T01:48:56;-3273.90;84.80
48994;DHT22;34804;49.214;12.276;2023-04-06T01:51:23;-3273.80;85.30
48994;DHT22;34804;49.214;12.276;2023-04-06T01:53:51;-3273.80;85.20
48994;DHT22;34804;49.214;12.276;2023-04-06T01:56:18;-3273.70;85.50
48994;DHT22;34804;49.214;12.276;2023-04-06T01:58:48;-3273.60;85.00
48994;DHT22;34804;49.214;12.276;2023-04-06T02:01:16;-3273.50;85.50
48994;DHT22;34804;49.214;12.276;2023-04-06T02:03:43;-3273.50;85.20
48994;DHT22;34804;49.214;12.276;2023-04-06T02:06:10;-3273.50;85.60
48994;DHT22;34804;49.214;12.276;2023-04-06T02:08:37;-3273.60;85.50
48994;DHT22;34804;49.214;12.276;2023-04-06T02:11:07;-3273.60;85.30
48994;DHT22;34804;49.214;12.276;2023-04-06T02:13:34;-3273.70;85.30
48994;DHT22;34804;49.214;12.276;2023-04-06T02:16:01;-3273.70;85.40
48994;DHT22;34804;49.214;12.276;2023-04-06T02:18:32;-3273.80;85.30
48994;DHT22;34804;49.214;12.276;2023-04-06T02:20:59;-3273.80;85.10
48994;DHT22;34804;49.214;12.276;2023-04-06T02:23:25;-3273.90;85.30
48994;DHT22;34804;49.214;12.276;2023-04-06T02:25:53;-3274.00;85.20
48994;DHT22;34804;49.214;12.276;2023-04-06T02:28:20;-3274.00;85.10
48994;DHT22;34804;49.214;12.276;2023-04-06T02:30:48;-3274.10;85.40
48994;DHT22;34804;49.214;12.276;2023-04-06T02:33:14;-3274.00;85.40
48994;DHT22;34804;49.214;12.276;2023-04-06T02:35:41;-3274.10;86.10
48994;DHT22;34804;49.214;12.276;2023-04-06T02:38:08;-3274.20;86.10
48994;DHT22;34804;49.214;12.276;2023-04-06T02:40:35;-3274.30;85.30
48994;DHT22;34804;49.214;12.276;2023-04-06T02:43:02;-3274.20;85.40
48994;DHT22;34804;49.214;12.276;2023-04-06T02:45:29;-3274.30;85.60
48994;DHT22;34804;49.214;12.276;2023-04-06T02:47:56;-3274.20;85.30
48994;DHT22;34804;49.214;12.276;2023-04-06T02:50:23;-3274.20;85.50
48994;DHT22;34804;49.214;12.276;2023-04-06T02:52:52;-3274.20;85.30
48994;DHT22;34804;49.214;12.276;2023-04-06T02:55:19;-3274.20;85.00
48994;DHT22;34804;49.214;12.276;2023-04-06T02:57:48;-3274.20;85.10
48994;DHT22;34804;49.214;12.276;2023-04-06T03:00:15;-3274.20;85.90
48994;DHT22;34804;49.214;12.276;2023-04-06T03:02:42;-3274.20;85.60
48994;DHT22;34804;49.214;12.276;2023-04-06T03:05:09;-3274.20;85.60
48994;DHT22;34804;49.214;12.276;2023-04-06T03:07:35;-3274.20;85.10
48994;DHT22;34804;49.214;12.276;2023-04-06T03:10:02;-3274.10;85.30
48994;DHT22;34804;49.214;12.276;2023-04-06T03:12:29;-3274.00;85.60
48994;DHT22;34804;49.214;12.276;2023-04-06T03:14:56;-3273.90;86.30
48994;DHT22;34804;49.214;12.276;2023-04-06T03:17:23;-3274.00;86.00
48994;DHT22;34804;49.214;12.276;2023-04-06T03:19:50;-3274.00;86.00
48994;DHT22;34804;49.214;12.276;2023-04-06T03:22:17;-3274.00;86.00
48994;DHT22;34804;49.214;12.276;2023-04-06T03:24:44;-3274.00;86.40
48994;DHT22;34804;49.214;12.276;2023-04-06T03:27:10;-3274.00;86.40
48994;DHT22;34804;49.214;12.276;2023-04-06T03:29:37;-3274.00;86.20
48994;DHT22;34804;49.214;12.276;2023-04-06T03:32:04;-3274.10;86.10
48994;DHT22;34804;49.214;12.276;2023-04-06T03:34:31;-3274.00;86.40
48994;DHT22;34804;49.214;12.276;2023-04-06T03:36:58;-3273.90;86.20
48994;DHT22;34804;49.214;12.276;2023-04-06T03:39:36;-3273.80;86.60
48994;DHT22;34804;49.214;12.276;2023-04-06T03:42:03;-3273.80;86.70
48994;DHT22;34804;49.214;12.276;2023-04-06T03:44:29;-3273.90;87.20
48994;DHT22;34804;49.214;12.276;2023-04-06T03:46:56;-3274.00;86.80
48994;DHT22;34804;49.214;12.276;2023-04-06T03:49:23;-3274.20;86.40
48994;DHT22;34804;49.214;12.276;2023-04-06T03:51:50;-3274.00;86.10
48994;DHT22;34804;49.214;12.276;2023-04-06T03:54:17;-3273.90;86.30
48994;DHT22;34804;49.214;12.276;2023-04-06T03:56:44;-3273.90;86.40
48994;DHT22;34804;49.214;12.276;2023-04-06T03:59:10;-3273.80;86.50
48994;DHT22;34804;49.214;12.276;2023-04-06T04:01:37;-3274.00;86.80
48994;DHT22;34804;49.214;12.276;2023-04-06T04:04:05;-3274.10;85.70
48994;DHT22;34804;49.214;12.276;2023-04-06T04:06:32;-3273.90;86.00
48994;DHT22;34804;49.214;12.276;2023-04-06T04:08:59;-3273.90;86.40
48994;DHT22;34804;49.214;12.276;2023-04-06T04:11:26;-3274.00;86.60
48994;DHT22;34804;49.214;12.276;2023-04-06T04:13:53;-3273.90;86.10
48994;DHT22;34804;49.214;12.276;2023-04-06T04:16:20;-3273.80;86.40
48994;DHT22;34804;49.214;12.276;2023-04-06T04:18:47;-3273.70;86.80
48994;DHT22;34804;49.214;12.276;2023-04-06T04:21:15;-3273.70;87.20
48994;DHT22;34804;49.214;12.276;2023-04-06T04:23:42;-3273.70;87.30
48994;DHT22;34804;49.214;12.276;2023-04-06T04:26:08;-3273.80;87.30
48994;DHT22;34804;49.214;12.276;2023-04-06T04:28:36;-3273.90;87.50
48994;DHT22;34804;49.214;12.276;2023-04-06T04:31:02;-3274.00;86.70
48994;DHT22;34804;49.214;12.276;2023-04-06T04:33:29;-3273.90;86.40
48994;DHT22;34804;49.214;12.276;2023-04-06T04:35:56;-3274.00;86.90
48994;DHT22;34804;49.214;12.276;2023-04-06T04:38:23;-3274.20;85.90
48994;DHT22;34804;49.214;12.276;2023-04-06T04:40:51;-3274.20;86.10
48994;DHT22;34804;49.214;12.276;2023-04-06T04:43:17;-3274.20;86.20
48994;DHT22;34804;49.214;12.276;2023-04-06T04:45:44;-3274.20;86.50
48994;DHT22;34804;49.214;12.276;2023-04-06T04:48:12;-3274.20;86.60
48994;DHT22;34804;49.214;12.276;2023-04-06T04:50:39;-3274.20;86.60
48994;DHT22;34804;49.214;12.276;2023-04-06T04:53:06;-3274.30;86.20
48994;DHT22;34804;49.214;12.276;2023-04-06T04:55:33;-3274.30;86.30
48994;DHT22;34804;49.214;12.276;2023-04-06T04:58:00;-3274.20;86.50
48994;DHT22;34804;49.214;12.276;2023-04-06T05:00:27;-3274.30;87.00
48994;DHT22;34804;49.214;12.276;2023-04-06T05:02:54;-3274.50;86.80
48994;DHT22;34804;49.214;12.276;2023-04-06T05:05:21;-3274.60;85.70
48994;DHT22;34804;49.214;12.276;2023-04-06T05:07:48;-3274.70;86.00
48994;DHT22;34804;49.214;12.276;2023-04-06T05:10:14;-3274.80;85.60
48994;DHT22;34804;49.214;12.276;2023-04-06T05:12:41;-3274.70;85.10
48994;DHT22;34804;49.214;12.276;2023-04-06T05:15:09;-3274.60;85.50
48994;DHT22;34804;49.214;12.276;2023-04-06T05:17:36;-3274.70;86.10
48994;DHT22;34804;49.214;12.276;2023-04-06T05:20:03;-3274.80;85.50
48994;DHT22;34804;49.214;12.276;2023-04-06T05:22:30;-3274.80;85.00
48994;DHT22;34804;49.214;12.276;2023-04-06T05:24:57;-3274.80;84.70
48994;DHT22;34804;49.214;12.276;2023-04-06T05:27:24;-3274.70;85.10
48994;DHT22;34804;49.214;12.276;2023-04-06T05:29:51;-3274.60;85.60
48994;DHT22;34804;49.214;12.276;2023-04-06T05:32:19;-3274.60;85.80
48994;DHT22;34804;49.214;12.276;2023-04-06T05:34:49;-3274.60;85.70
48994;DHT22;34804;49.214;12.276;2023-04-06T05:37:16;-3274.60;85.90
48994;DHT22;34804;49.214;12.276;2023-04-06T05:39:43;-3274.60;86.10
48994;DHT22;34804;49.214;12.276;2023-04-06T05:42:10;-3274.70;86.30
48994;DHT22;34804;49.214;12.276;2023-04-06T05:44:37;-3274.70;86.30
48994;DHT22;34804;49.214;12.276;2023-04-06T05:47:05;-3274.70;86.30
48994;DHT22;34804;49.214;12.276;2023-04-06T05:49:32;-3274.80;86.40
48994;DHT22;34804;49.214;12.276;2023-04-06T05:51:58;-3274.80;86.30
48994;DHT22;34804;49.214;12.276;2023-04-06T05:54:25;-3274.80;85.80
48994;DHT22;34804;49.214;12.276;2023-04-06T05:56:52;-3274.90;86.50
48994;DHT22;34804;49.214;12.276;2023-04-06T05:59:19;-3275.00;86.30
48994;DHT22;34804;49.214;12.276;2023-04-06T06:01:47;-3275.10;86.40
48994;DHT22;34804;49.214;12.276;2023-04-06T06:04:14;-3275.20;86.50
48994;DHT22;34804;49.214;12.276;2023-04-06T06:06:41;-3275.20;86.30
48994;DHT22;34804;49.214;12.276;2023-04-06T06:09:07;-3275.30;85.50
48994;DHT22;34804;49.214;12.276;2023-04-06T06:11:35;-3275.40;85.40
48994;DHT22;34804;49.214;12.276;2023-04-06T06:14:02;-3275.50;85.50
48994;DHT22;34804;49.214;12.276;2023-04-06T06:16:28;-3275.70;84.90
48994;DHT22;34804;49.214;12.276;2023-04-06T06:18:55;-3275.80;84.50
48994;DHT22;34804;49.214;12.276;2023-04-06T06:21:22;-3275.90;84.20
48994;DHT22;34804;49.214;12.276;2023-04-06T06:23:49;-3276.10;84.20
48994;DHT22;34804;49.214;12.276;2023-04-06T06:26:16;-3276.10;83.90
48994;DHT22;34804;49.214;12.276;2023-04-06T06:28:43;-3276.10;83.80
48994;DHT22;34804;49.214;12.276;2023-04-06T06:31:10;-3276.10;83.60
48994;DHT22;34804;49.214;12.276;2023-04-06T06:33:37;-3276.10;83.50
48994;DHT22;34804;49.214;12.276;2023-04-06T06:36:04;-3276.20;84.00
48994;DHT22;34804;49.214;12.276;2023-04-06T06:38:31;-3276.30;83.40
48994;DHT22;34804;49.214;12.276;2023-04-06T06:40:58;-3276.30;83.30
48994;DHT22;34804;49.214;12.276;2023-04-06T06:43:25;-3276.40;83.30
48994;DHT22;34804;49.214;12.276;2023-04-06T06:45:52;-3276.60;82.80
48994;DHT22;34804;49.214;12.276;2023-04-06T06:48:19;-3276.50;82.40
48994;DHT22;34804;49.214;12.276;2023-04-06T06:50:47;-3276.70;82.20
48994;DHT22;34804;49.214;12.276;2023-04-06T06:53:15;-3276.70;81.90
48994;DHT22;34804;49.214;12.276;2023-04-06T06:55:42;0.00;81.80
48994;DHT22;34804;49.214;12.276;2023-04-06T06:58:10;0.10;81.40
48994;DHT22;34804;49.214;12.276;2023-04-06T07:00:37;0.30;81.80
48994;DHT22;34804;49.214;12.276;2023-04-06T07:03:04;0.40;81.50
48994;DHT22;34804;49.214;12.276;2023-04-06T07:05:31;0.50;80.10
48994;DHT22;34804;49.214;12.276;2023-04-06T07:07:58;0.60;79.90
48994;DHT22;34804;49.214;12.276;2023-04-06T07:10:26;0.70;79.40
48994;DHT22;34804;49.214;12.276;2023-04-06T07:12:53;0.80;79.00
48994;DHT22;34804;49.214;12.276;2023-04-06T07:15:20;0.90;80.00
48994;DHT22;34804;49.214;12.276;2023-04-06T07:17:47;1.10;79.70
48994;DHT22;34804;49.214;12.276;2023-04-06T07:20:14;1.20;80.10
48994;DHT22;34804;49.214;12.276;2023-04-06T07:22:42;1.40;79.70
48994;DHT22;34804;49.214;12.276;2023-04-06T07:25:10;1.50;79.00
48994;DHT22;34804;49.214;12.276;2023-04-06T07:27:37;1.70;78.10
48994;DHT22;34804;49.214;12.276;2023-04-06T07:30:04;1.70;77.00
48994;DHT22;34804;49.214;12.276;2023-04-06T07:32:32;1.80;77.40
48994;DHT22;34804;49.214;12.276;2023-04-06T07:35:01;1.90;75.60
48994;DHT22;34804;49.214;12.276;2023-04-06T07:37:28;1.90;76.10
48994;DHT22;34804;49.214;12.276;2023-04-06T07:39:55;2.20;76.60
48994;DHT22;34804;49.214;12.276;2023-04-06T07:42:22;2.40;75.40
48994;DHT22;34804;49.214;12.276;2023-04-06T07:44:49;2.40;75.30
48994;DHT22;34804;49.214;12.276;2023-04-06T07:47:16;2.60;74.50
48994;DHT22;34804;49.214;12.276;2023-04-06T07:49:43;2.80;72.90
48994;DHT22;34804;49.214;12.276;2023-04-06T07:52:09;2.90;72.10
48994;DHT22;34804;49.214;12.276;2023-04-06T07:54:36;3.10;72.10
48994;DHT22;34804;49.214;12.276;2023-04-06T07:57:03;3.20;71.30
48994;DHT22;34804;49.214;12.276;2023-04-06T07:59:30;3.30;69.90
48994;DHT22;34804;49.214;12.276;2023-04-06T08:01:57;3.50;69.60
48994;DHT22;34804;49.214;12.276;2023-04-06T08:04:23;3.70;68.80
48994;DHT22;34804;49.214;12.276;2023-04-06T08:06:50;3.90;69.20
48994;DHT22;34804;49.214;12.276;2023-04-06T08:09:17;4.00;67.20
48994;DHT22;34804;49.214;12.276;2023-04-06T08:11:44;4.10;67.80
48994;DHT22;34804;49.214;12.276;2023-04-06T08:14:12;4.30;67.30
48994;DHT22;34804;49.214;12.276;2023-04-06T08:16:39;4.50;66.10
48994;DHT22;34804;49.214;12.276;2023-04-06T08:19:06;4.70;65.50
48994;DHT22;34804;49.214;12.276;2023-04-06T08:21:35;4.90;64.80
48994;DHT22;34804;49.214;12.276;2023-04-06T08:24:03;5.20;64.60
48994;DHT22;34804;49.214;12.276;2023-04-06T08:26:30;5.30;61.50
48994;DHT22;34804;49.214;12.276;2023-04-06T08:28:57;5.40;61.50
48994;DHT22;34804;49.214;12.276;2023-04-06T08:31:24;5.50;59.20
48994;DHT22;34804;49.214;12.276;2023-04-06T08:33:51;5.60;60.20
48994;DHT22;34804;49.214;12.276;2023-04-06T08:36:18;5.80;58.70
48994;DHT22;34804;49.214;12.276;2023-04-06T08:38:49;5.80;58.20
48994;DHT22;34804;49.214;12.276;2023-04-06T08:41:18;6.00;55.70
48994;DHT22;34804;49.214;12.276;2023-04-06T08:44:02;6.10;58.10
48994;DHT22;34804;49.214;12.276;2023-04-06T08:46:30;6.00;55.70
48994;DHT22;34804;49.214;12.276;2023-04-06T08:48:59;6.10;55.70
48994;DHT22;34804;49.214;12.276;2023-04-06T08:51:27;6.30;54.90
48994;DHT22;34804;49.214;12.276;2023-04-06T08:53:56;6.50;51.60
48994;DHT22;34804;49.214;12.276;2023-04-06T08:56:24;6.70;53.00
48994;DHT22;34804;49.214;12.276;2023-04-06T08:58:53;6.80;48.40
48994;DHT22;34804;49.214;12.276;2023-04-06T09:01:25;6.90;49.50
48994;DHT22;34804;49.214;12.276;2023-04-06T09:03:56;7.00;48.90
48994;DHT22;34804;49.214;12.276;2023-04-06T09:06:25;7.30;50.40
48994;DHT22;34804;49.214;12.276;2023-04-06T09:08:53;7.50;52.00
48994;DHT22;34804;49.214;12.276;2023-04-06T09:11:21;7.80;50.30
48994;DHT22;34804;49.214;12.276;2023-04-06T09:13:50;7.90;49.30
48994;DHT22;34804;49.214;12.276;2023-04-06T09:16:18;7.90;47.90
48994;DHT22;34804;49.214;12.276;2023-04-06T09:18:46;8.00;47.10
48994;DHT22;34804;49.214;12.276;2023-04-06T09:21:19;8.20;46.80
48994;DHT22;34804;49.214;12.276;2023-04-06T09:24:00;8.30;44.70
48994;DHT22;34804;49.214;12.276;2023-04-06T09:26:28;8.10;42.90
48994;DHT22;34804;49.214;12.276;2023-04-06T09:28:57;8.30;44.10
48994;DHT22;34804;49.214;12.276;2023-04-06T09:31:30;8.40;45.20
48994;DHT22;34804;49.214;12.276;2023-04-06T09:33:57;8.30;43.10
48994;DHT22;34804;49.214;12.276;2023-04-06T09:36:36;8.30;45.00
48994;DHT22;34804;49.214;12.276;2023-04-06T09:39:06;8.60;42.80
48994;DHT22;34804;49.214;12.276;2023-04-06T09:41:35;8.80;42.80
48994;DHT22;34804;49.214;12.276;2023-04-06T09:46:43;8.90;46.10
48994;DHT22;34804;49.214;12.276;2023-04-06T09:49:27;9.00;42.80
48994;DHT22;34804;49.214;12.276;2023-04-06T09:51:58;8.90;41.80
48994;DHT22;34804;49.214;12.276;2023-04-06T09:54:28;8.60;40.60
48994;DHT22;34804;49.214;12.276;2023-04-06T10:05:46;9.50;45.30
48994;DHT22;34804;49.214;12.276;2023-04-06T10:08:14;9.40;44.60
48994;DHT22;34804;49.214;12.276;2023-04-06T10:10:42;9.80;46.40
48994;DHT22;34804;49.214;12.276;2023-04-06T10:13:11;10.00;42.30
48994;DHT22;34804;49.214;12.276;2023-04-06T10:15:38;10.10;42.00
48994;DHT22;34804;49.214;12.276;2023-04-06T10:18:08;9.50;39.30
48994;DHT22;34804;49.214;12.276;2023-04-06T10:21:09;9.20;39.30
48994;DHT22;34804;49.214;12.276;2023-04-06T10:23:44;9.10;39.00
48994;DHT22;34804;49.214;12.276;2023-04-06T10:26:15;8.80;40.40
48994;DHT22;34804;49.214;12.276;2023-04-06T10:28:47;8.60;41.90
48994;DHT22;34804;49.214;12.276;2023-04-06T10:31:14;8.40;43.40
48994;DHT22;34804;49.214;12.276;2023-04-06T10:33:41;8.40;42.20
48994;DHT22;34804;49.214;12.276;2023-04-06T10:36:12;8.50;43.20
48994;DHT22;34804;49.214;12.276;2023-04-06T10:38:42;8.90;41.00
48994;DHT22;34804;49.214;12.276;2023-04-06T10:41:12;9.20;40.70
48994;DHT22;34804;49.214;12.276;2023-04-06T10:43:40;9.60;39.80
48994;DHT22;34804;49.214;12.276;2023-04-06T10:46:08;9.50;41.80
48994;DHT22;34804;49.214;12.276;2023-04-06T10:48:39;9.70;41.60
48994;DHT22;34804;49.214;12.276;2023-04-06T10:51:14;9.70;40.20
48994;DHT22;34804;49.214;12.276;2023-04-06T10:53:42;9.10;38.70
48994;DHT22;34804;49.214;12.276;2023-04-06T10:56:11;9.60;41.50
48994;DHT22;34804;49.214;12.276;2023-04-06T10:58:51;9.80;40.80
48994;DHT22;34804;49.214;12.276;2023-04-06T11:01:20;10.20;39.40
48994;DHT22;34804;49.214;12.276;2023-04-06T11:03:49;10.20;40.00
48994;DHT22;34804;49.214;12.276;2023-04-06T11:06:27;10.30;41.00
48994;DHT22;34804;49.214;12.276;2023-04-06T11:08:56;10.70;40.40
48994;DHT22;34804;49.214;12.276;2023-04-06T11:11:25;10.90;38.00
48994;DHT22;34804;49.214;12.276;2023-04-06T11:13:57;11.00;41.60
48994;DHT22;34804;49.214;12.276;2023-04-06T11:16:35;11.50;41.50
48994;DHT22;34804;49.214;12.276;2023-04-06T11:19:04;12.10;37.50
48994;DHT22;34804;49.214;12.276;2023-04-06T11:21:38;11.90;36.50
48994;DHT22;34804;49.214;12.276;2023-04-06T11:24:09;11.70;39.20
48994;DHT22;34804;49.214;12.276;2023-04-06T11:26:46;11.40;35.90
48994;DHT22;34804;49.214;12.276;2023-04-06T11:29:21;11.50;38.80
48994;DHT22;34804;49.214;12.276;2023-04-06T11:31:51;11.40;36.80
48994;DHT22;34804;49.214;12.276;2023-04-06T11:34:23;11.30;40.80
48994;DHT22;34804;49.214;12.276;2023-04-06T11:37:01;11.70;39.20
48994;DHT22;34804;49.214;12.276;2023-04-06T11:39:29;11.90;36.00
48994;DHT22;34804;49.214;12.276;2023-04-06T11:42:00;12.20;39.90
48994;DHT22;34804;49.214;12.276;2023-04-06T11:44:32;12.70;35.10
48994;DHT22;34804;49.214;12.276;2023-04-06T11:47:05;12.90;36.50
48994;DHT22;34804;49.214;12.276;2023-04-06T11:49:33;12.70;37.90
48994;DHT22;34804;49.214;12.276;2023-04-06T11:52:03;12.30;34.60
48994;DHT22;34804;49.214;12.276;2023-04-06T11:54:40;12.30;36.00
48994;DHT22;34804;49.214;12.276;2023-04-06T11:57:08;12.30;35.70
48994;DHT22;34804;49.214;12.276;2023-04-06T11:59:35;12.80;37.90
48994;DHT22;34804;49.214;12.276;2023-04-06T12:02:03;12.30;32.10
48994;DHT22;34804;49.214;12.276;2023-04-06T12:04:31;12.30;32.30
48994;DHT22;34804;49.214;12.276;2023-04-06T12:06:58;12.10;33.90
48994;DHT22;34804;49.214;12.276;2023-04-06T12:09:25;12.30;38.50
48994;DHT22;34804;49.214;12.276;2023-04-06T12:11:52;12.40;36.40
48994;DHT22;34804;49.214;12.276;2023-04-06T12:14:19;11.90;32.00
48994;DHT22;34804;49.214;12.276;2023-04-06T12:16:46;12.40;33.90
48994;DHT22;34804;49.214;12.276;2023-04-06T12:19:13;12.30;33.00
48994;DHT22;34804;49.214;12.276;2023-04-06T12:21:40;12.00;34.10
48994;DHT22;34804;49.214;12.276;2023-04-06T12:24:07;12.00;35.10
48994;DHT22;34804;49.214;12.276;2023-04-06T12:26:35;12.20;33.90
48994;DHT22;34804;49.214;12.276;2023-04-06T12:29:02;12.30;36.50
48994;DHT22;34804;49.214;12.276;2023-04-06T12:31:36;12.70;34.50
48994;DHT22;34804;49.214;12.276;2023-04-06T12:34:05;13.10;31.30
48994;DHT22;34804;49.214;12.276;2023-04-06T12:36:33;13.20;32.60
48994;DHT22;34804;49.214;12.276;2023-04-06T12:39:00;15.00;34.70
48994;DHT22;34804;49.214;12.276;2023-04-06T12:41:28;16.30;29.80
48994;DHT22;34804;49.214;12.276;2023-04-06T12:43:56;17.00;31.00
48994;DHT22;34804;49.214;12.276;2023-04-06T12:46:23;17.10;28.20
48994;DHT22;34804;49.214;12.276;2023-04-06T12:48:51;17.60;29.20
48994;DHT22;34804;49.214;12.276;2023-04-06T12:51:20;17.90;25.00
48994;DHT22;34804;49.214;12.276;2023-04-06T12:53:47;17.50;28.30
48994;DHT22;34804;49.214;12.276;2023-04-06T12:56:16;18.20;25.10
48994;DHT22;34804;49.214;12.276;2023-04-06T12:58:44;18.50;25.90
48994;DHT22;34804;49.214;12.276;2023-04-06T13:01:12;18.30;22.80
48994;DHT22;34804;49.214;12.276;2023-04-06T13:03:40;17.90;25.60
48994;DHT22;34804;49.214;12.276;2023-04-06T13:06:07;17.80;24.00
48994;DHT22;34804;49.214;12.276;2023-04-06T13:08:39;18.80;25.90
48994;DHT22;34804;49.214;12.276;2023-04-06T13:11:07;19.40;26.60
48994;DHT22;34804;49.214;12.276;2023-04-06T13:13:37;19.90;26.20
48994;DHT22;34804;49.214;12.276;2023-04-06T13:16:07;20.50;25.90
48994;DHT22;34804;49.214;12.276;2023-04-06T13:18:34;21.30;25.30
48994;DHT22;34804;49.214;12.276;2023-04-06T13:21:06;21.20;25.00
48994;DHT22;34804;49.214;12.276;2023-04-06T13:23:34;20.60;24.60
48994;DHT22;34804;49.214;12.276;2023-04-06T13:26:03;20.60;22.40
48994;DHT22;34804;49.214;12.276;2023-04-06T13:28:31;19.40;25.40
48994;DHT22;34804;49.214;12.276;2023-04-06T13:30:59;19.80;25.60
48994;DHT22;34804;49.214;12.276;2023-04-06T13:33:29;19.40;23.40
48994;DHT22;34804;49.214;12.276;2023-04-06T13:35:56;19.30;24.00
48994;DHT22;34804;49.214;12.276;2023-04-06T13:38:23;19.70;23.10
48994;DHT22;34804;49.214;12.276;2023-04-06T13:40:51;19.30;22.70
48994;DHT22;34804;49.214;12.276;2023-04-06T13:43:18;19.40;24.40
48994;DHT22;34804;49.214;12.276;2023-04-06T13:45:51;19.90;24.50
48994;DHT22;34804;49.214;12.276;2023-04-06T13:48:18;19.30;23.20
48994;DHT22;34804;49.214;12.276;2023-04-06T13:50:45;19.20;22.20
48994;DHT22;34804;49.214;12.276;2023-04-06T13:53:13;19.50;26.00
48994;DHT22;34804;49.214;12.276;2023-04-06T13:55:40;20.10;25.70
48994;DHT22;34804;49.214;12.276;2023-04-06T13:58:07;19.30;23.70
48994;DHT22;34804;49.214;12.276;2023-04-06T14:00:35;19.30;23.20
48994;DHT22;34804;49.214;12.276;2023-04-06T14:03:02;19.30;24.90
48994;DHT22;34804;49.214;12.276;2023-04-06T14:05:33;19.40;22.80
48994;DHT22;34804;49.214;12.276;2023-04-06T14:08:01;20.20;24.70
48994;DHT22;34804;49.214;12.276;2023-04-06T14:10:28;21.10;22.00
48994;DHT22;34804;49.214;12.276;2023-04-06T14:12:55;21.60;23.80
48994;DHT22;34804;49.214;12.276;2023-04-06T14:15:22;21.80;23.00
48994;DHT22;34804;49.214;12.276;2023-04-06T14:17:51;22.80;23.60
48994;DHT22;34804;49.214;12.276;2023-04-06T14:20:22;22.90;23.00
48994;DHT22;34804;49.214;12.276;2023-04-06T14:22:48;23.80;22.50
48994;DHT22;34804;49.214;12.276;2023-04-06T14:25:18;23.70;20.90
48994;DHT22;34804;49.214;12.276;2023-04-06T14:27:45;23.30;20.20
48994;DHT22;34804;49.214;12.276;2023-04-06T14:30:12;21.90;21.00
48994;DHT22;34804;49.214;12.276;2023-04-06T14:32:39;21.70;24.00
48994;DHT22;34804;49.214;12.276;2023-04-06T14:35:06;21.30;22.50
48994;DHT22;34804;49.214;12.276;2023-04-06T14:37:34;21.80;22.80
48994;DHT22;34804;49.214;12.276;2023-04-06T14:40:02;22.00;23.30
48994;DHT22;34804;49.214;12.276;2023-04-06T14:42:30;22.10;21.10
48994;DHT22;34804;49.214;12.276;2023-04-06T14:44:57;20.40;21.70
48994;DHT22;34804;49.214;12.276;2023-04-06T14:47:24;19.60;21.60
48994;DHT22;34804;49.214;12.276;2023-04-06T14:49:52;19.70;21.90
48994;DHT22;34804;49.214;12.276;2023-04-06T14:52:22;19.30;25.00
48994;DHT22;34804;49.214;12.276;2023-04-06T14:54:48;19.30;22.40
48994;DHT22;34804;49.214;12.276;2023-04-06T14:57:15;18.40;23.00
48994;DHT22;34804;49.214;12.276;2023-04-06T14:59:42;19.30;24.50
48994;DHT22;34804;49.214;12.276;2023-04-06T15:02:09;19.20;24.70
48994;DHT22;34804;49.214;12.276;2023-04-06T15:04:38;20.40;24.70
48994;DHT22;34804;49.214;12.276;2023-04-06T15:07:06;21.00;24.40
48994;DHT22;34804;49.214;12.276;2023-04-06T15:09:33;21.00;25.60
48994;DHT22;34804;49.214;12.276;2023-04-06T15:12:00;20.40;23.50
48994;DHT22;34804;49.214;12.276;2023-04-06T15:14:27;20.30;23.60
48994;DHT22;34804;49.214;12.276;2023-04-06T15:16:54;20.80;21.40